Time;durP1;ratioP1;P1;durP2;ratioP2;P2;SDS_P1;SDS_P2;PMS_P1;PMS_P2;Temp;Humidity;BMP_temperature;BMP_pressure;BME280_temperature;BME280_humidity;BME280_pressure;Samples;Min_cycle;Max_cycle;Signal;HPM_P1;HPM_P2
2020/12/22 00:01:23;;;;;;;1.05;0.60;;;10.50;98.00;;;;;;5034476;28;20068;-69
2020/12/22 00:04:00;;;;;;;0.63;0.60;;;10.50;98.00;;;;;;5034649;28;20032;-68
2020/12/22 00:06:25;;;;;;;1.00;0.70;;;10.50;98.00;;;;;;5039806;28;20017;-68
2020/12/22 00:08:51;;;;;;;1.30;0.73;;;10.60;98.00;;;;;;5036478;28;20044;-68
2020/12/22 00:11:20;;;;;;;0.75;0.70;;;10.50;98.00;;;;;;5032650;28;20033;-68
2020/12/22 00:13:46;;;;;;;0.80;0.60;;;10.60;98.00;;;;;;5038604;28;20051;-70
2020/12/22 00:16:15;;;;;;;1.20;0.80;;;10.50;98.00;;;;;;5038409;28;20017;-70
2020/12/22 00:18:41;;;;;;;0.85;0.70;;;10.50;98.00;;;;;;5036491;28;20037;-71
2020/12/22 00:21:07;;;;;;;0.82;0.60;;;10.50;98.00;;;;;;5037510;28;20440;-70
2020/12/22 00:23:35;;;;;;;1.27;0.80;;;10.50;98.00;;;;;;5037718;28;20099;-71
2020/12/22 00:26:06;;;;;;;1.38;0.80;;;10.50;98.00;;;;;;5037203;28;20057;-70
2020/12/22 00:28:32;;;;;;;1.00;0.70;;;10.50;98.00;;;;;;5036759;28;20025;-69
2020/12/22 00:30:58;;;;;;;0.93;0.77;;;10.50;98.00;;;;;;5036652;28;20488;-68
2020/12/22 00:33:26;;;;;;;0.70;0.70;;;10.50;98.00;;;;;;5036938;28;20438;-69
2020/12/22 00:35:52;;;;;;;1.73;0.90;;;10.50;98.00;;;;;;5035947;28;20048;-69
2020/12/22 00:38:17;;;;;;;1.15;0.70;;;10.40;98.00;;;;;;5047906;28;20314;-70
2020/12/22 00:40:43;;;;;;;1.02;0.73;;;10.40;98.00;;;;;;5034083;28;20029;-69
2020/12/22 00:43:09;;;;;;;0.90;0.80;;;10.50;98.00;;;;;;5030802;28;20033;-70
2020/12/22 00:45:37;;;;;;;0.98;0.63;;;10.50;98.00;;;;;;5037009;28;20438;-69
2020/12/22 00:48:04;;;;;;;1.15;0.70;;;10.60;98.00;;;;;;5034029;28;20079;-70
2020/12/22 00:50:33;;;;;;;0.70;0.70;;;10.70;98.00;;;;;;5036936;28;20136;-70
2020/12/22 00:53:04;;;;;;;1.17;0.80;;;10.70;98.00;;;;;;5036874;28;20030;-70
2020/12/22 00:55:32;;;;;;;1.00;0.70;;;10.60;98.00;;;;;;5035249;28;20048;-70
2020/12/22 00:57:58;;;;;;;1.38;1.13;;;10.60;98.00;;;;;;5037293;28;20037;-68
2020/12/22 01:00:27;;;;;;;1.20;0.80;;;10.60;98.00;;;;;;5037515;28;20021;-70
2020/12/22 01:02:55;;;;;;;0.82;0.75;;;10.70;98.00;;;;;;5036039;28;20029;-69
2020/12/22 01:05:21;;;;;;;0.60;0.60;;;10.70;98.00;;;;;;5037230;28;20392;-70
2020/12/22 01:07:49;;;;;;;0.70;0.60;;;10.80;98.00;;;;;;5036962;28;20061;-68
2020/12/22 01:10:15;;;;;;;2.10;0.80;;;10.70;98.00;;;;;;5035450;28;20033;-69
2020/12/22 01:12:43;;;;;;;0.98;0.70;;;10.80;98.00;;;;;;5036864;28;20029;-70
2020/12/22 01:15:09;;;;;;;0.88;0.70;;;10.80;98.00;;;;;;5036662;28;20032;-70
2020/12/22 01:17:35;;;;;;;0.70;0.70;;;10.80;98.00;;;;;;5036704;28;20033;-70
2020/12/22 01:20:01;;;;;;;1.40;0.75;;;10.80;98.00;;;;;;5036756;28;20036;-70
2020/12/22 01:22:26;;;;;;;1.27;0.70;;;10.80;98.00;;;;;;5036683;28;20441;-70
2020/12/22 01:24:58;;;;;;;0.93;0.70;;;10.80;98.00;;;;;;5035695;28;20429;-69
2020/12/22 01:27:26;;;;;;;0.90;0.70;;;10.80;98.00;;;;;;5036250;28;20052;-69
2020/12/22 01:29:54;;;;;;;0.93;0.70;;;10.70;98.00;;;;;;5037328;28;20079;-70
2020/12/22 01:32:19;;;;;;;0.80;0.65;;;10.70;98.00;;;;;;5035920;28;20036;-70
2020/12/22 01:34:45;;;;;;;1.92;0.90;;;10.70;98.00;;;;;;5035781;28;20045;-69
2020/12/22 01:37:12;;;;;;;1.00;0.70;;;10.60;98.00;;;;;;5036793;28;20317;-70
2020/12/22 01:39:38;;;;;;;0.85;0.70;;;10.70;98.00;;;;;;5034462;28;20075;-69
2020/12/22 01:42:09;;;;;;;0.63;0.60;;;10.70;98.00;;;;;;5036332;28;20021;-70
2020/12/22 01:44:34;;;;;;;1.13;0.70;;;10.70;98.00;;;;;;5035682;28;20028;-69
2020/12/22 01:47:00;;;;;;;3.90;0.90;;;10.70;98.00;;;;;;5034291;28;20120;-70
2020/12/22 01:49:28;;;;;;;1.45;0.60;;;10.70;98.00;;;;;;5036038;28;20096;-69
2020/12/22 01:52:02;;;;;;;1.65;0.88;;;10.60;98.00;;;;;;5036202;28;20631;-69
2020/12/22 01:54:28;;;;;;;1.38;0.80;;;10.60;98.00;;;;;;5036273;28;20025;-69
2020/12/22 01:56:54;;;;;;;1.08;0.70;;;10.70;98.00;;;;;;5034782;28;20041;-69
2020/12/22 01:59:20;;;;;;;0.60;0.60;;;10.70;98.00;;;;;;5035740;28;20109;-68
2020/12/22 02:01:55;;;;;;;0.63;0.60;;;10.70;98.00;;;;;;5035814;28;20354;-69
2020/12/22 02:04:21;;;;;;;0.75;0.60;;;10.80;98.00;;;;;;5035814;28;20025;-70
2020/12/22 02:06:49;;;;;;;1.48;0.60;;;10.80;98.00;;;;;;5036322;28;20033;-69
2020/12/22 02:09:17;;;;;;;0.60;0.55;;;10.80;98.00;;;;;;5034018;28;20054;-69
2020/12/22 02:11:43;;;;;;;0.93;0.68;;;10.80;98.00;;;;;;5033801;28;20097;-70
2020/12/22 02:14:10;;;;;;;1.08;0.60;;;10.80;98.00;;;;;;5034700;28;20411;-70
2020/12/22 02:16:37;;;;;;;0.82;0.60;;;10.80;98.00;;;;;;5035072;28;20036;-69
2020/12/22 02:19:04;;;;;;;0.60;0.60;;;10.80;98.00;;;;;;5035743;28;20080;-69
2020/12/22 02:21:29;;;;;;;1.55;0.50;;;10.90;98.00;;;;;;5035945;28;20426;-67
2020/12/22 02:23:56;;;;;;;0.77;0.60;;;10.90;97.80;;;;;;5034416;28;20064;-69
2020/12/22 02:26:25;;;;;;;0.90;0.73;;;10.90;97.80;;;;;;5035626;28;20036;-70
2020/12/22 02:28:53;;;;;;;0.60;0.60;;;10.90;98.00;;;;;;5031680;28;20334;-69
2020/12/22 02:31:21;;;;;;;2.75;0.75;;;10.80;98.00;;;;;;5035617;28;20025;-70
2020/12/22 02:33:46;;;;;;;0.60;0.60;;;10.90;97.80;;;;;;5034935;28;20304;-69
2020/12/22 02:36:13;;;;;;;0.50;0.50;;;10.90;97.80;;;;;;5034977;28;20087;-69
2020/12/22 02:38:40;;;;;;;0.60;0.60;;;10.90;97.80;;;;;;5033803;28;20029;-69
2020/12/22 02:41:12;;;;;;;0.93;0.60;;;10.90;97.80;;;;;;5033748;28;20022;-69
2020/12/22 02:43:37;;;;;;;0.60;0.60;;;10.90;97.60;;;;;;5035828;28;20030;-70
2020/12/22 02:46:03;;;;;;;0.57;0.57;;;10.90;97.40;;;;;;5035214;28;20033;-69
2020/12/22 02:48:29;;;;;;;0.52;0.52;;;10.90;97.40;;;;;;5029163;28;20025;-70
2020/12/22 02:50:59;;;;;;;1.08;0.60;;;11.00;97.30;;;;;;5035317;28;20172;-69
2020/12/22 02:53:28;;;;;;;1.83;0.60;;;10.90;97.50;;;;;;5033592;28;20040;-70
2020/12/22 02:55:55;;;;;;;0.82;0.57;;;10.90;97.30;;;;;;5033632;28;20026;-69
2020/12/22 02:58:24;;;;;;;0.80;0.60;;;10.90;97.40;;;;;;5035568;28;20052;-70
2020/12/22 03:00:49;;;;;;;0.40;0.40;;;10.90;97.30;;;;;;5032355;28;20026;-69
2020/12/22 03:03:21;;;;;;;0.50;0.50;;;10.90;97.30;;;;;;5035301;28;20025;-69
2020/12/22 03:05:52;;;;;;;0.60;0.60;;;10.90;97.20;;;;;;5035390;28;20111;-67
2020/12/22 03:08:20;;;;;;;0.50;0.50;;;11.10;96.80;;;;;;5035092;28;20168;-68
2020/12/22 03:10:46;;;;;;;0.80;0.50;;;11.10;96.70;;;;;;5033014;28;20021;-69
2020/12/22 03:13:11;;;;;;;0.50;0.50;;;11.10;96.80;;;;;;5035088;28;20040;-69
2020/12/22 03:15:37;;;;;;;0.50;0.50;;;11.10;96.70;;;;;;5034456;28;20060;-69
2020/12/22 03:18:05;;;;;;;0.50;0.50;;;11.10;96.60;;;;;;5033881;28;20040;-69
2020/12/22 03:20:31;;;;;;;0.77;0.50;;;11.20;96.50;;;;;;5034775;28;20025;-69
2020/12/22 03:23:02;;;;;;;0.63;0.50;;;11.20;96.50;;;;;;5035134;28;20029;-69
2020/12/22 03:25:30;;;;;;;1.02;0.55;;;11.10;96.60;;;;;;5031888;28;20026;-69
2020/12/22 03:28:02;;;;;;;0.50;0.50;;;11.10;96.60;;;;;;5034233;28;20506;-69
2020/12/22 03:30:31;;;;;;;0.60;0.60;;;11.10;96.70;;;;;;5034651;28;20382;-69
2020/12/22 03:33:08;;;;;;;0.65;0.60;;;11.10;96.70;;;;;;5034837;28;20116;-69
2020/12/22 03:35:37;;;;;;;0.50;0.50;;;11.10;96.70;;;;;;5033255;28;20025;-69
2020/12/22 03:38:03;;;;;;;1.05;0.70;;;11.10;96.70;;;;;;5034283;28;20037;-69
2020/12/22 03:40:29;;;;;;;0.52;0.50;;;11.10;96.60;;;;;;5033502;28;20025;-69
2020/12/22 03:43:02;;;;;;;0.50;0.50;;;11.10;96.70;;;;;;5034229;28;20021;-68
2020/12/22 03:45:30;;;;;;;0.50;0.50;;;11.10;96.80;;;;;;5033742;28;20060;-70
2020/12/22 03:47:59;;;;;;;0.50;0.50;;;11.10;96.80;;;;;;5034328;28;20033;-69
2020/12/22 03:50:24;;;;;;;3.70;0.57;;;11.10;96.80;;;;;;5034244;28;20095;-69
2020/12/22 03:52:53;;;;;;;0.50;0.50;;;11.10;96.90;;;;;;5032684;28;20033;-70
2020/12/22 03:55:19;;;;;;;0.50;0.50;;;11.10;97.00;;;;;;5032637;28;20453;-69
2020/12/22 03:57:47;;;;;;;0.50;0.50;;;11.10;97.00;;;;;;5034675;28;20065;-69
2020/12/22 04:00:14;;;;;;;0.93;0.65;;;11.00;97.20;;;;;;5033877;28;20095;-69
2020/12/22 04:02:39;;;;;;;0.55;0.55;;;11.00;97.20;;;;;;5034027;28;20017;-69
2020/12/22 04:05:05;;;;;;;1.10;0.50;;;11.10;97.20;;;;;;5034299;28;20033;-69
2020/12/22 04:07:31;;;;;;;0.70;0.57;;;11.10;97.20;;;;;;5033629;28;20441;-70
2020/12/22 04:09:57;;;;;;;0.50;0.50;;;11.00;97.30;;;;;;5033308;28;20037;-69
2020/12/22 04:12:22;;;;;;;0.90;0.57;;;11.10;97.30;;;;;;5033964;28;20180;-69
2020/12/22 04:14:48;;;;;;;0.50;0.50;;;11.10;97.30;;;;;;5032639;28;20036;-69
2020/12/22 04:17:13;;;;;;;0.50;0.50;;;11.10;97.30;;;;;;5034234;28;20031;-70
2020/12/22 04:19:39;;;;;;;1.77;0.50;;;11.10;97.10;;;;;;5032856;28;20025;-69
2020/12/22 04:22:05;;;;;;;0.63;0.50;;;11.20;97.10;;;;;;5034414;28;20033;-69
2020/12/22 04:24:30;;;;;;;0.50;0.50;;;11.20;97.10;;;;;;5032853;28;21682;-69
2020/12/22 04:26:56;;;;;;;0.50;0.50;;;11.20;96.90;;;;;;5033336;28;20022;-70
2020/12/22 04:29:22;;;;;;;0.40;0.40;;;11.20;96.90;;;;;;5034270;28;20068;-70
2020/12/22 04:31:47;;;;;;;0.50;0.50;;;11.20;97.00;;;;;;5033974;28;20044;-68
2020/12/22 04:34:16;;;;;;;0.47;0.43;;;11.20;97.00;;;;;;5022241;28;20041;-68
2020/12/22 04:36:44;;;;;;;0.85;0.50;;;11.20;96.90;;;;;;5032625;28;20060;-69
2020/12/22 04:39:10;;;;;;;0.73;0.60;;;11.20;97.00;;;;;;5034021;28;20033;-70
2020/12/22 04:41:37;;;;;;;0.50;0.50;;;11.20;97.00;;;;;;5033173;28;20368;-68
2020/12/22 04:44:08;;;;;;;0.60;0.60;;;11.20;96.90;;;;;;5034090;28;20021;-70
2020/12/22 04:46:34;;;;;;;1.40;0.60;;;11.20;97.10;;;;;;5032193;28;20057;-68
2020/12/22 04:49:00;;;;;;;0.65;0.60;;;11.20;97.10;;;;;;5031868;28;20451;-69
2020/12/22 04:51:26;;;;;;;0.50;0.50;;;11.30;96.90;;;;;;5034363;28;20065;-69
2020/12/22 04:53:51;;;;;;;0.90;0.50;;;11.30;96.80;;;;;;5033985;28;20352;-70
2020/12/22 04:56:19;;;;;;;0.90;0.60;;;11.40;96.60;;;;;;5031860;28;20091;-67
2020/12/22 04:58:46;;;;;;;0.65;0.50;;;11.40;96.50;;;;;;5035433;28;20041;-69
2020/12/22 05:01:12;;;;;;;0.50;0.50;;;11.50;96.40;;;;;;5036934;28;20410;-70
2020/12/22 05:03:41;;;;;;;0.50;0.43;;;11.50;96.20;;;;;;5037317;28;20340;-69
2020/12/22 05:06:06;;;;;;;0.50;0.50;;;11.50;96.10;;;;;;5037109;28;20103;-70
2020/12/22 05:08:32;;;;;;;0.50;0.50;;;11.60;95.90;;;;;;5037067;28;20406;-69
2020/12/22 05:10:58;;;;;;;2.20;0.50;;;11.60;96.00;;;;;;5035862;28;20041;-69
2020/12/22 05:13:23;;;;;;;0.50;0.50;;;11.50;96.00;;;;;;5035536;28;20032;-69
2020/12/22 05:15:51;;;;;;;0.77;0.55;;;11.50;96.00;;;;;;5036781;28;20444;-69
2020/12/22 05:18:32;;;;;;;0.68;0.50;;;11.60;95.90;;;;;;5036818;28;20032;-70
2020/12/22 05:21:00;;;;;;;0.60;0.60;;;11.60;95.70;;;;;;5036345;28;20096;-69
2020/12/22 05:23:31;;;;;;;1.23;0.55;;;11.60;95.70;;;;;;5036306;28;20045;-67
2020/12/22 05:25:58;;;;;;;1.15;0.57;;;11.70;95.70;;;;;;5035256;28;20036;-68
2020/12/22 05:28:28;;;;;;;0.50;0.50;;;11.70;95.60;;;;;;5036818;28;20079;-69
2020/12/22 05:30:56;;;;;;;1.48;0.50;;;11.70;95.60;;;;;;5035267;28;20102;-68
2020/12/22 05:33:22;;;;;;;0.63;0.50;;;11.70;95.60;;;;;;5037270;28;20037;-69
2020/12/22 05:35:48;;;;;;;0.82;0.60;;;11.70;95.60;;;;;;5036402;28;20376;-69
2020/12/22 05:38:19;;;;;;;1.33;0.60;;;11.70;95.60;;;;;;5037322;28;20318;-69
2020/12/22 05:40:46;;;;;;;0.95;0.70;;;11.70;95.60;;;;;;5041625;28;20417;-69
2020/12/22 05:43:12;;;;;;;0.50;0.50;;;11.70;95.60;;;;;;5037198;28;20022;-69
2020/12/22 05:45:40;;;;;;;0.70;0.60;;;11.70;95.70;;;;;;5036713;28;20053;-68
2020/12/22 05:48:12;;;;;;;0.75;0.60;;;11.70;95.60;;;;;;5034821;28;20389;-69
2020/12/22 05:50:39;;;;;;;0.55;0.50;;;11.70;95.70;;;;;;5036363;28;20046;-69
2020/12/22 05:53:10;;;;;;;1.90;0.80;;;11.60;95.90;;;;;;5035912;28;20072;-68
2020/12/22 05:55:39;;;;;;;1.40;0.70;;;11.60;96.00;;;;;;5034297;28;20029;-68
2020/12/22 05:58:12;;;;;;;0.98;0.65;;;11.60;96.00;;;;;;5027622;28;20109;-68
2020/12/22 06:00:42;;;;;;;3.10;1.00;;;11.70;96.10;;;;;;5035647;28;20037;-68
2020/12/22 06:03:11;;;;;;;0.60;0.50;;;11.60;96.10;;;;;;5036513;28;20044;-68
2020/12/22 06:06:04;;;;;;;1.42;0.82;;;11.60;96.10;;;;;;5033620;28;20361;-70
2020/12/22 06:08:30;;;;;;;0.50;0.50;;;11.60;96.10;;;;;;5035826;28;20035;-70
2020/12/22 06:11:05;;;;;;;2.20;0.75;;;11.70;95.90;;;;;;5035034;28;20057;-69
2020/12/22 06:13:32;;;;;;;1.55;0.60;;;11.70;96.00;;;;;;5036200;28;20025;-69
2020/12/22 06:16:00;;;;;;;1.13;0.50;;;11.70;96.00;;;;;;5035201;28;20033;-70
2020/12/22 06:18:26;;;;;;;0.77;0.55;;;11.70;96.10;;;;;;5035742;28;20076;-68
2020/12/22 06:20:55;;;;;;;0.57;0.50;;;11.70;96.30;;;;;;5035960;28;20063;-69
2020/12/22 06:23:26;;;;;;;0.40;0.40;;;11.60;96.40;;;;;;5035946;28;20037;-70
2020/12/22 06:26:03;;;;;;;1.60;0.50;;;11.60;96.40;;;;;;5033311;28;20033;-70
2020/12/22 06:28:32;;;;;;;1.13;0.40;;;11.60;96.40;;;;;;5036054;28;20029;-70
2020/12/22 06:30:58;;;;;;;1.83;0.90;;;11.60;96.40;;;;;;5033845;28;20056;-68
2020/12/22 06:33:27;;;;;;;0.93;0.57;;;11.70;96.20;;;;;;5035767;28;20083;-70
2020/12/22 06:36:17;;;;;;;3.00;0.93;;;11.70;95.90;;;;;;5035424;28;20296;-69
2020/12/22 06:38:59;;;;;;;2.67;0.75;;;11.80;95.70;;;;;;5035017;28;20027;-69
2020/12/22 06:41:33;;;;;;;0.70;0.57;;;11.90;95.40;;;;;;5034575;28;20345;-69
2020/12/22 06:44:15;;;;;;;1.83;0.70;;;11.90;95.10;;;;;;5034080;28;20044;-70
2020/12/22 06:46:43;;;;;;;1.05;0.55;;;12.00;94.70;;;;;;5033866;28;20052;-70
2020/12/22 06:49:10;;;;;;;0.57;0.50;;;12.00;94.70;;;;;;5034463;28;20037;-70
2020/12/22 06:51:45;;;;;;;0.50;0.50;;;12.00;94.90;;;;;;5022586;28;20029;-70
2020/12/22 06:54:14;;;;;;;1.17;0.68;;;12.00;94.90;;;;;;5035610;28;20028;-68
2020/12/22 06:56:52;;;;;;;0.93;0.50;;;12.00;94.80;;;;;;5027248;28;20034;-69
2020/12/22 06:59:47;;;;;;;0.80;0.40;;;12.00;94.80;;;;;;5021927;28;20327;-70
2020/12/22 07:02:31;;;;;;;3.42;1.08;;;12.00;94.80;;;;;;5033833;28;20087;-69
2020/12/22 07:04:58;;;;;;;0.47;0.47;;;12.00;94.80;;;;;;5029620;28;20307;-70
2020/12/22 07:07:23;;;;;;;0.40;0.40;;;12.00;94.90;;;;;;5035022;28;20014;-70
2020/12/22 07:10:03;;;;;;;0.50;0.50;;;12.00;95.00;;;;;;5032405;28;20444;-70
2020/12/22 07:12:31;;;;;;;0.40;0.40;;;12.00;95.00;;;;;;5034814;28;20033;-70
2020/12/22 07:14:57;;;;;;;1.00;0.60;;;12.00;95.10;;;;;;5035132;28;20323;-70
2020/12/22 07:17:24;;;;;;;0.60;0.50;;;12.00;95.30;;;;;;5035327;28;20037;-69
2020/12/22 07:19:57;;;;;;;0.50;0.50;;;11.90;95.50;;;;;;5035171;28;20025;-69
2020/12/22 07:22:23;;;;;;;0.50;0.50;;;12.00;95.40;;;;;;5033464;28;20025;-68
2020/12/22 07:24:52;;;;;;;0.50;0.50;;;12.00;95.50;;;;;;5033056;28;20442;-69
2020/12/22 07:27:21;;;;;;;0.40;0.40;;;12.00;95.60;;;;;;5033658;28;20056;-70
2020/12/22 07:29:49;;;;;;;0.52;0.40;;;11.90;95.60;;;;;;5034564;28;20061;-70
2020/12/22 07:32:16;;;;;;;0.45;0.40;;;11.90;96.00;;;;;;5034351;28;20143;-70
2020/12/22 07:34:44;;;;;;;0.40;0.40;;;11.90;96.10;;;;;;5034698;28;20036;-70
2020/12/22 07:37:12;;;;;;;0.40;0.40;;;11.90;96.10;;;;;;5034518;28;20126;-70
2020/12/22 07:39:39;;;;;;;0.40;0.40;;;11.90;96.00;;;;;;5034139;28;20048;-68
2020/12/22 07:42:09;;;;;;;0.50;0.50;;;11.90;95.80;;;;;;5032413;28;20414;-70
2020/12/22 07:44:36;;;;;;;0.50;0.40;;;11.90;95.70;;;;;;5031150;28;20426;-68
2020/12/22 07:47:02;;;;;;;0.40;0.40;;;11.90;95.80;;;;;;5034457;28;20034;-68
2020/12/22 07:49:28;;;;;;;0.52;0.50;;;12.00;95.50;;;;;;5034345;28;20540;-69
2020/12/22 07:51:54;;;;;;;0.40;0.40;;;12.00;95.50;;;;;;5033042;28;20095;-68
2020/12/22 07:54:19;;;;;;;0.40;0.40;;;12.00;95.30;;;;;;5034089;28;20103;-69
2020/12/22 07:56:46;;;;;;;0.50;0.50;;;12.00;95.30;;;;;;5033319;28;20036;-69
2020/12/22 07:59:13;;;;;;;0.40;0.40;;;12.00;95.00;;;;;;5033974;28;20049;-70
2020/12/22 08:01:50;;;;;;;0.82;0.43;;;12.10;94.70;;;;;;5029165;28;20411;-69
2020/12/22 08:04:18;;;;;;;0.50;0.50;;;12.10;94.60;;;;;;5033869;28;20017;-69
2020/12/22 08:06:54;;;;;;;0.63;0.55;;;12.20;94.60;;;;;;5033266;28;20341;-70
2020/12/22 08:09:39;;;;;;;0.68;0.55;;;12.10;94.80;;;;;;5034623;28;20039;-69
2020/12/22 08:12:10;;;;;;;0.68;0.50;;;12.10;94.60;;;;;;5033948;28;20029;-70
2020/12/22 08:14:42;;;;;;;0.70;0.50;;;12.20;94.70;;;;;;5034418;28;20029;-69
2020/12/22 08:17:19;;;;;;;0.65;0.50;;;12.10;94.80;;;;;;5034135;28;20033;-68
2020/12/22 08:19:47;;;;;;;0.50;0.50;;;12.10;94.70;;;;;;5034750;28;20025;-70
2020/12/22 08:22:17;;;;;;;0.40;0.40;;;12.10;94.60;;;;;;5032620;28;20057;-68
2020/12/22 08:24:43;;;;;;;0.65;0.50;;;12.10;94.80;;;;;;5033402;28;20021;-69
2020/12/22 08:27:11;;;;;;;0.50;0.50;;;12.20;94.60;;;;;;5032562;28;20018;-69
2020/12/22 08:29:42;;;;;;;0.50;0.50;;;12.10;94.60;;;;;;5034483;28;20041;-70
2020/12/22 08:32:07;;;;;;;0.43;0.43;;;12.10;94.60;;;;;;5034310;28;20038;-70
2020/12/22 08:34:33;;;;;;;0.50;0.50;;;12.20;94.40;;;;;;5037051;28;20037;-68
2020/12/22 08:37:11;;;;;;;0.50;0.50;;;12.10;94.60;;;;;;5036110;28;20064;-68
2020/12/22 08:39:43;;;;;;;0.70;0.55;;;12.10;94.70;;;;;;5037162;28;20079;-70
2020/12/22 08:42:10;;;;;;;0.50;0.50;;;12.10;94.90;;;;;;5037778;28;20469;-69
2020/12/22 08:44:46;;;;;;;0.50;0.50;;;12.10;94.80;;;;;;5038076;28;20021;-70
2020/12/22 08:47:13;;;;;;;0.63;0.50;;;12.10;95.10;;;;;;5037409;28;20430;-70
2020/12/22 08:49:39;;;;;;;0.52;0.50;;;12.10;95.10;;;;;;5036961;28;20461;-69
2020/12/22 08:52:16;;;;;;;0.65;0.55;;;12.10;95.20;;;;;;5037160;28;20043;-68
2020/12/22 08:54:45;;;;;;;2.53;0.70;;;12.00;95.40;;;;;;5036571;28;20108;-68
2020/12/22 08:57:22;;;;;;;0.50;0.50;;;12.00;95.50;;;;;;5037985;28;20040;-68
2020/12/22 08:59:48;;;;;;;1.92;1.08;;;12.00;95.30;;;;;;5037868;28;20036;-70
2020/12/22 09:02:29;;;;;;;0.50;0.50;;;12.10;95.30;;;;;;5037910;28;20025;-70
2020/12/22 09:04:58;;;;;;;1.20;0.80;;;12.10;95.30;;;;;;5020174;28;20030;-69
2020/12/22 09:07:26;;;;;;;0.50;0.50;;;12.10;95.50;;;;;;5037426;28;20033;-69
2020/12/22 09:10:05;;;;;;;0.80;0.60;;;12.10;95.30;;;;;;5036614;28;20030;-70
2020/12/22 09:12:31;;;;;;;0.70;0.50;;;12.10;95.40;;;;;;5034694;28;20035;-69
2020/12/22 09:14:58;;;;;;;1.15;0.63;;;12.10;95.80;;;;;;5024686;28;20108;-70
2020/12/22 09:17:33;;;;;;;0.65;0.63;;;12.10;95.80;;;;;;5037184;28;20025;-69
2020/12/22 09:20:03;;;;;;;3.40;1.58;;;12.00;96.00;;;;;;5037518;28;20488;-69
2020/12/22 09:22:33;;;;;;;1.60;0.60;;;12.00;96.60;;;;;;5036224;28;20029;-69
2020/12/22 09:25:00;;;;;;;2.53;1.10;;;11.90;96.90;;;;;;5034743;28;20021;-70
2020/12/22 09:27:41;;;;;;;1.45;0.70;;;11.70;97.60;;;;;;5037204;28;20369;-70
2020/12/22 09:30:10;;;;;;;1.05;0.80;;;11.60;97.80;;;;;;5037413;28;20371;-71
2020/12/22 09:32:40;;;;;;;1.13;0.60;;;11.50;97.90;;;;;;5037070;28;20489;-71
2020/12/22 09:35:08;;;;;;;1.88;0.98;;;11.50;98.00;;;;;;5036234;28;20351;-70
2020/12/22 09:37:35;;;;;;;0.90;0.60;;;11.60;98.00;;;;;;5037192;28;20474;-70
2020/12/22 09:40:01;;;;;;;3.17;0.60;;;11.60;97.90;;;;;;5036019;28;20159;-71
2020/12/22 09:42:27;;;;;;;0.82;0.70;;;11.70;97.40;;;;;;5036226;28;20105;-70
2020/12/22 09:44:53;;;;;;;0.85;0.55;;;11.70;97.50;;;;;;5036576;28;20034;-70
2020/12/22 09:47:19;;;;;;;0.75;0.60;;;11.80;97.10;;;;;;5036841;28;20033;-70
2020/12/22 09:49:48;;;;;;;1.00;0.70;;;11.90;97.10;;;;;;5037102;28;20060;-70
2020/12/22 09:52:13;;;;;;;0.63;0.55;;;12.00;96.50;;;;;;5036963;28;20025;-70
2020/12/22 09:54:40;;;;;;;1.67;0.70;;;12.00;96.50;;;;;;5035365;28;20034;-70
2020/12/22 09:57:15;;;;;;;1.10;0.70;;;11.90;97.10;;;;;;5036300;28;20316;-70
2020/12/22 09:59:51;;;;;;;0.73;0.70;;;11.70;97.60;;;;;;5024749;28;20243;-70
2020/12/22 10:02:22;;;;;;;0.55;0.55;;;11.50;97.70;;;;;;5036763;28;20025;-70
2020/12/22 10:04:48;;;;;;;2.63;0.60;;;11.40;98.00;;;;;;5036017;28;20026;-70
2020/12/22 10:07:15;;;;;;;0.93;0.60;;;11.40;98.00;;;;;;5036114;28;20033;-70
2020/12/22 10:09:41;;;;;;;1.42;0.82;;;11.50;97.90;;;;;;5035573;28;20033;-70
2020/12/22 10:12:09;;;;;;;0.50;0.50;;;11.50;98.00;;;;;;5036045;28;20411;-69
2020/12/22 10:14:35;;;;;;;2.33;1.30;;;11.50;98.00;;;;;;5035467;28;20052;-69
2020/12/22 10:17:02;;;;;;;0.90;0.70;;;11.50;98.00;;;;;;5036561;28;20044;-70
2020/12/22 10:19:27;;;;;;;1.95;1.10;;;11.50;98.00;;;;;;5036313;28;20462;-71
2020/12/22 10:21:53;;;;;;;3.25;1.25;;;11.60;98.00;;;;;;5035566;28;20113;-69
2020/12/22 10:24:18;;;;;;;0.60;0.60;;;11.60;98.00;;;;;;5036549;28;20032;-68
2020/12/22 10:26:44;;;;;;;0.98;0.60;;;11.60;97.70;;;;;;5034657;28;20325;-70
2020/12/22 10:29:10;;;;;;;2.22;0.80;;;11.60;97.90;;;;;;5016650;28;20030;-70
2020/12/22 10:31:38;;;;;;;1.35;0.88;;;11.70;97.90;;;;;;5026096;28;20030;-70
2020/12/22 10:34:07;;;;;;;0.93;0.60;;;11.70;97.50;;;;;;5035707;28;20029;-69
2020/12/22 10:36:33;;;;;;;3.13;0.95;;;11.60;97.70;;;;;;5034105;28;20088;-70
2020/12/22 10:38:58;;;;;;;1.60;0.80;;;11.50;98.00;;;;;;5033073;28;20037;-70
2020/12/22 10:41:25;;;;;;;1.98;1.08;;;11.50;98.00;;;;;;5032142;28;20425;-70
2020/12/22 10:43:51;;;;;;;2.67;0.80;;;11.40;98.00;;;;;;5030834;28;20100;-70
2020/12/22 10:46:17;;;;;;;2.05;0.82;;;11.40;98.00;;;;;;5032035;28;20021;-71
2020/12/22 10:48:46;;;;;;;2.47;1.25;;;11.40;98.00;;;;;;5040137;28;20028;-71
2020/12/22 10:51:13;;;;;;;1.92;0.90;;;11.50;98.00;;;;;;5035312;28;20342;-70
2020/12/22 10:53:41;;;;;;;1.42;0.90;;;11.60;98.00;;;;;;5033741;28;20032;-70
2020/12/22 10:56:18;;;;;;;3.22;1.55;;;11.60;98.00;;;;;;5032647;28;20045;-70
2020/12/22 10:58:44;;;;;;;2.17;1.20;;;11.70;97.80;;;;;;5034424;28;20041;-70
2020/12/22 11:01:14;;;;;;;2.60;1.38;;;11.80;97.60;;;;;;5033690;28;20026;-70
2020/12/22 11:03:42;;;;;;;1.77;0.50;;;11.80;97.40;;;;;;5034360;28;20377;-70
2020/12/22 11:09:05;;;;;;;6.40;1.50;;;11.80;97.50;;;;;;5021647;28;20041;-70
2020/12/22 11:11:37;;;;;;;2.00;0.80;;;11.80;97.70;;;;;;5033398;28;20029;-70
2020/12/22 11:14:03;;;;;;;0.80;0.50;;;11.80;97.70;;;;;;5034944;28;20032;-70
2020/12/22 11:16:30;;;;;;;0.70;0.52;;;11.80;97.80;;;;;;5021881;28;20025;-70
2020/12/22 11:18:56;;;;;;;0.50;0.50;;;11.90;98.00;;;;;;5033409;28;20029;-70
2020/12/22 11:21:24;;;;;;;0.85;0.60;;;12.00;97.80;;;;;;5034146;28;20025;-70
2020/12/22 11:23:50;;;;;;;0.75;0.60;;;12.00;97.80;;;;;;5036612;28;20033;-70
2020/12/22 11:26:20;;;;;;;0.50;0.50;;;12.00;98.00;;;;;;5032318;28;20426;-70
2020/12/22 11:28:49;;;;;;;1.25;0.60;;;12.00;97.60;;;;;;5045288;28;20048;-70
2020/12/22 11:31:15;;;;;;;0.55;0.55;;;12.00;97.90;;;;;;5031571;28;20022;-70
2020/12/22 11:33:41;;;;;;;0.70;0.60;;;12.00;97.90;;;;;;5022046;28;20913;-69
2020/12/22 11:36:14;;;;;;;0.95;0.65;;;12.00;97.80;;;;;;5031304;28;20108;-70
2020/12/22 11:38:40;;;;;;;0.95;0.70;;;12.00;97.80;;;;;;5016505;28;20522;-69
2020/12/22 11:41:06;;;;;;;1.13;0.80;;;12.00;97.80;;;;;;5032182;28;20030;-68
2020/12/22 11:43:35;;;;;;;0.70;0.60;;;12.00;98.00;;;;;;5033260;28;20159;-68
2020/12/22 11:46:04;;;;;;;1.83;0.70;;;11.90;98.00;;;;;;5031268;28;20398;-68
2020/12/22 11:48:30;;;;;;;0.50;0.50;;;11.90;98.00;;;;;;5032437;28;20340;-69
2020/12/22 11:50:57;;;;;;;0.93;0.60;;;11.90;98.00;;;;;;5032402;28;20116;-68
2020/12/22 11:53:23;;;;;;;0.57;0.57;;;11.90;98.00;;;;;;5032388;28;20295;-69
2020/12/22 11:55:50;;;;;;;0.50;0.50;;;12.00;98.00;;;;;;5031778;28;20034;-68
2020/12/22 11:58:15;;;;;;;0.68;0.45;;;12.00;98.00;;;;;;5031638;28;20060;-69
2020/12/22 12:00:44;;;;;;;0.50;0.50;;;11.90;98.00;;;;;;5032112;28;20076;-67
2020/12/22 12:03:10;;;;;;;0.70;0.60;;;11.90;98.00;;;;;;5032858;28;20045;-67
2020/12/22 12:05:35;;;;;;;0.50;0.50;;;11.90;98.00;;;;;;5032036;28;20436;-68
2020/12/22 12:08:01;;;;;;;1.17;0.60;;;11.90;98.00;;;;;;5035424;28;20029;-68
2020/12/22 12:10:27;;;;;;;1.30;0.85;;;11.90;98.00;;;;;;5036133;28;20477;-67
2020/12/22 12:12:53;;;;;;;0.63;0.50;;;12.10;98.00;;;;;;5034386;28;20048;-68
2020/12/22 12:15:18;;;;;;;0.82;0.50;;;12.20;97.70;;;;;;5035892;28;20029;-67
2020/12/22 12:17:44;;;;;;;0.50;0.50;;;12.30;97.50;;;;;;5036851;28;20392;-68
2020/12/22 12:20:09;;;;;;;1.88;0.55;;;12.20;97.70;;;;;;5036805;28;20368;-69
2020/12/22 12:22:35;;;;;;;1.20;0.68;;;12.10;98.00;;;;;;5031853;28;20029;-68
2020/12/22 12:25:02;;;;;;;0.75;0.55;;;12.00;98.00;;;;;;5036329;28;20360;-67
2020/12/22 12:27:28;;;;;;;0.52;0.50;;;12.00;98.00;;;;;;5034666;28;20025;-70
2020/12/22 12:29:53;;;;;;;1.38;0.80;;;12.00;98.00;;;;;;5029944;28;20056;-69
2020/12/22 12:32:24;;;;;;;0.98;0.60;;;12.10;98.00;;;;;;5035862;28;20037;-69
2020/12/22 12:34:50;;;;;;;0.80;0.60;;;12.20;98.00;;;;;;5036334;28;20087;-69
2020/12/22 12:37:15;;;;;;;1.05;0.70;;;12.20;98.00;;;;;;5034168;28;20033;-69
2020/12/22 12:39:41;;;;;;;0.73;0.50;;;12.20;98.00;;;;;;5035466;28;20034;-69
2020/12/22 12:42:06;;;;;;;0.60;0.50;;;12.30;98.00;;;;;;5036570;28;20140;-70
2020/12/22 12:44:32;;;;;;;0.52;0.50;;;12.40;98.00;;;;;;5032914;28;20048;-68
2020/12/22 12:46:58;;;;;;;0.50;0.50;;;12.40;98.00;;;;;;5036415;28;20128;-69
2020/12/22 12:49:23;;;;;;;0.50;0.50;;;12.30;98.00;;;;;;5035051;28;20037;-69
2020/12/22 12:51:49;;;;;;;0.75;0.60;;;12.30;98.00;;;;;;5025115;28;20030;-69
2020/12/22 12:54:15;;;;;;;0.50;0.50;;;12.40;98.00;;;;;;5032552;28;20022;-70
2020/12/22 12:56:47;;;;;;;0.75;0.60;;;12.50;98.00;;;;;;5033657;28;20037;-68